createdAt,value
2022-11-21T00:08:16.456Z,8.71
2022-11-21T00:18:18.018Z,8.43
2022-11-21T00:28:19.503Z,8.52
2022-11-21T00:38:21.005Z,8.41
2022-11-21T00:48:22.469Z,8.82
2022-11-21T00:58:23.929Z,9.15
2022-11-21T01:08:25.355Z,9.20
2022-11-21T01:18:26.788Z,8.71
2022-11-21T01:28:28.284Z,8.98
2022-11-21T01:38:29.740Z,8.25
2022-11-21T01:49:08.735Z,8.52
2022-11-21T01:59:15.929Z,8.18
2022-11-21T02:09:18.624Z,7.91
2022-11-21T02:19:27.937Z,7.87
2022-11-21T02:29:30.593Z,7.93
2022-11-21T02:39:35.401Z,7.99
2022-11-21T02:49:58.035Z,8.13
2022-11-21T02:59:59.498Z,7.80
2022-11-21T03:10:01.001Z,7.83
2022-11-21T03:20:02.528Z,7.54
2022-11-21T03:30:04.469Z,7.64
2022-11-21T03:40:06.761Z,7.60
2022-11-21T03:50:08.619Z,7.44
2022-11-21T04:00:10.694Z,7.45
2022-11-21T04:10:12.183Z,7.73
2022-11-21T04:20:13.997Z,7.75
2022-11-21T04:30:15.698Z,8.21
2022-11-21T04:40:17.649Z,7.94
2022-11-21T04:50:20.261Z,8.34
2022-11-21T05:00:24.342Z,8.15
2022-11-21T05:10:26.261Z,8.19
2022-11-21T05:20:27.772Z,8.05
2022-11-21T05:30:29.304Z,8.36
2022-11-21T05:40:30.770Z,8.13
2022-11-21T05:50:32.209Z,8.07
2022-11-21T06:00:33.671Z,8.06
2022-11-21T06:10:35.265Z,8.06
2022-11-21T06:20:36.721Z,7.54
2022-11-21T06:30:38.646Z,7.46
2022-11-21T06:40:40.742Z,7.34
2022-11-21T06:50:42.254Z,7.25
2022-11-21T07:00:44.389Z,8.04
2022-11-21T07:11:10.214Z,8.39
2022-11-21T07:21:08.496Z,8.75
2022-11-21T07:31:13.920Z,9.15
2022-11-21T07:41:15.844Z,9.45
2022-11-21T07:51:17.307Z,9.64
2022-11-21T08:01:18.850Z,9.98
2022-11-21T08:11:20.529Z,10.26
2022-11-21T08:21:22.025Z,10.20
2022-11-21T08:31:23.620Z,10.33
2022-11-21T08:41:43.743Z,10.84
2022-11-21T08:51:49.233Z,13.02
2022-11-21T09:01:52.807Z,13.25
2022-11-21T09:11:54.385Z,12.97
2022-11-21T09:21:56.362Z,13.03
2022-11-21T09:31:57.816Z,13.37
2022-11-21T09:42:09.926Z,16.16
2022-11-21T09:52:15.629Z,14.46
2022-11-21T10:02:19.528Z,12.83
2022-11-21T10:12:58.747Z,17.33
2022-11-21T10:23:37.770Z,16.40
2022-11-21T10:33:40.473Z,14.97
2022-11-21T10:44:17.830Z,17.89
2022-11-21T10:54:34.276Z,19.77
2022-11-21T11:04:47.282Z,21.20
2022-11-21T11:14:54.815Z,19.82
2022-11-21T11:25:00.477Z,16.01
2022-11-21T11:35:21.426Z,14.24
2022-11-21T11:45:49.181Z,14.85
2022-11-21T11:55:58.380Z,13.80
2022-11-21T12:06:09.143Z,13.82
2022-11-21T12:16:14.364Z,13.96
2022-11-21T12:26:37.419Z,13.85
2022-11-21T12:36:59.934Z,13.87
2022-11-21T12:47:22.915Z,13.94
2022-11-21T12:57:38.012Z,13.86
2022-11-21T13:07:41.188Z,14.05
2022-11-21T13:18:07.756Z,13.79
2022-11-21T13:28:18.601Z,13.23
2022-11-21T13:38:20.080Z,12.77
2022-11-21T13:48:24.525Z,12.50
2022-11-21T13:58:41.139Z,12.42
2022-11-21T14:08:43.826Z,12.10
2022-11-21T14:18:47.170Z,11.83
2022-11-21T14:28:48.865Z,11.69
2022-11-21T14:39:28.918Z,11.63
2022-11-21T14:49:16.882Z,11.38
2022-11-21T14:59:25.462Z,11.21
2022-11-21T15:20:09.951Z,10.49
2022-11-21T15:30:12.925Z,10.08
2022-11-21T15:40:19.850Z,9.76
2022-11-21T15:50:24.625Z,9.46
2022-11-21T16:00:26.108Z,9.25
2022-11-21T16:10:28.205Z,9.06
2022-11-21T16:20:29.777Z,8.86
2022-11-21T16:30:31.215Z,8.65
2022-11-21T16:40:32.641Z,8.41
2022-11-21T16:50:34.172Z,8.24
2022-11-21T17:00:36.742Z,8.10
2022-11-21T17:10:38.190Z,7.98
2022-11-21T17:20:39.704Z,7.92
2022-11-21T17:30:44.180Z,7.79
2022-11-21T17:40:45.659Z,7.61
2022-11-21T17:50:47.132Z,7.57
2022-11-21T18:00:53.943Z,7.47
2022-11-21T18:10:55.477Z,7.32
2022-11-21T18:21:08.810Z,7.22
2022-11-21T18:31:11.564Z,7.09
2022-11-21T18:41:16.003Z,6.99
2022-11-21T18:51:26.345Z,6.89
2022-11-21T19:01:29.254Z,6.81
2022-11-21T19:11:30.940Z,6.74
2022-11-21T19:21:35.940Z,6.64
2022-11-21T19:31:43.096Z,6.62
2022-11-21T19:41:50.433Z,6.48
2022-11-21T19:51:51.883Z,6.36
2022-11-21T20:01:53.724Z,6.32
2022-11-21T20:11:55.221Z,6.40
2022-11-21T20:21:56.794Z,6.71
2022-11-21T20:31:59.272Z,6.85
2022-11-21T20:42:01.682Z,6.67
2022-11-21T21:02:24.768Z,7.18
2022-11-21T21:12:27.677Z,7.06
2022-11-21T21:22:29.217Z,6.95
2022-11-21T21:32:30.666Z,6.97
2022-11-21T21:42:32.210Z,7.07
2022-11-21T21:52:33.707Z,6.97
2022-11-21T22:02:35.696Z,6.92
2022-11-21T22:12:42.561Z,6.94
2022-11-21T22:22:45.375Z,6.92
2022-11-21T22:32:47.024Z,6.86
2022-11-21T22:42:48.491Z,6.71
2022-11-21T22:52:50.044Z,6.72
2022-11-21T23:02:51.628Z,6.43
2022-11-21T23:12:53.355Z,6.37
2022-11-21T23:22:56.445Z,6.44
2022-11-21T23:32:57.955Z,6.34
2022-11-21T23:42:59.410Z,6.25
2022-11-21T23:53:00.989Z,6.17
